Time;durP1;ratioP1;P1;durP2;ratioP2;P2;SDS_P1;SDS_P2;PMS_P1;PMS_P2;Temp;Humidity;BMP_temperature;BMP_pressure;BME280_temperature;BME280_humidity;BME280_pressure;Samples;Min_cycle;Max_cycle;Signal;HPM_P1;HPM_P2
2022/09/09 00:00:43;;;;;;;0.93;0.50;;;;;;;;;;5025074;28;93734;-53
2022/09/09 00:03:14;;;;;;;0.67;0.53;;;;;;;;;;5034303;28;93005;-53
2022/09/09 00:05:44;;;;;;;3.60;0.80;;;;;;;;;;5022581;28;92053;-53
2022/09/09 00:08:14;;;;;;;0.70;0.50;;;;;;;;;;5022649;28;94234;-53
2022/09/09 00:10:42;;;;;;;1.00;0.70;;;;;;;;;;5029275;27;93408;-53
2022/09/09 00:13:16;;;;;;;2.00;0.40;;;;;;;;;;5032854;27;92095;-53
2022/09/09 00:15:46;;;;;;;0.53;0.53;;;;;;;;;;5039539;27;92093;-53
2022/09/09 00:18:17;;;;;;;1.17;0.80;;;;;;;;;;5025216;27;94092;-53
2022/09/09 00:20:46;;;;;;;0.70;0.60;;;;;;;;;;5038439;27;96918;-53
2022/09/09 00:23:18;;;;;;;0.63;0.60;;;;;;;;;;5038802;27;92144;-53
2022/09/09 00:25:48;;;;;;;1.10;0.87;;;;;;;;;;5042246;27;92790;-53
2022/09/09 00:28:21;;;;;;;0.77;0.73;;;;;;;;;;5045764;27;95129;-53
2022/09/09 00:30:49;;;;;;;1.07;0.70;;;;;;;;;;5043373;27;94690;-53
2022/09/09 00:33:18;;;;;;;1.47;0.83;;;;;;;;;;5054051;27;92237;-53
2022/09/09 00:35:46;;;;;;;1.57;0.70;;;;;;;;;;5039844;27;92219;-53
2022/09/09 00:38:15;;;;;;;1.10;0.90;;;;;;;;;;5051893;27;94223;-53
2022/09/09 00:40:47;;;;;;;1.70;0.80;;;;;;;;;;5043730;27;93913;-53
2022/09/09 00:43:20;;;;;;;0.70;0.50;;;;;;;;;;5038538;28;92144;-53
2022/09/09 00:45:56;;;;;;;1.73;1.00;;;;;;;;;;5038341;28;91287;-53
2022/09/09 00:48:26;;;;;;;0.67;0.57;;;;;;;;;;5038180;28;94153;-53
2022/09/09 00:50:56;;;;;;;1.73;0.70;;;;;;;;;;5037840;28;94123;-53
2022/09/09 00:53:27;;;;;;;0.80;0.60;;;;;;;;;;5038002;28;93058;-53
2022/09/09 00:55:56;;;;;;;1.43;1.00;;;;;;;;;;5044225;27;92065;-53
2022/09/09 00:58:24;;;;;;;1.70;0.90;;;;;;;;;;5045385;27;93888;-53
2022/09/09 01:00:53;;;;;;;1.10;0.90;;;;;;;;;;5048651;27;93954;-53
2022/09/09 01:03:24;;;;;;;1.17;1.00;;;;;;;;;;5043255;27;92004;-53
2022/09/09 01:05:57;;;;;;;0.57;0.57;;;;;;;;;;5045624;27;92040;-53
2022/09/09 01:08:30;;;;;;;1.00;0.60;;;;;;;;;;5042269;27;94021;-53
2022/09/09 01:10:58;;;;;;;0.60;0.60;;;;;;;;;;5041148;27;92813;-53
2022/09/09 01:13:30;;;;;;;1.60;0.67;;;;;;;;;;5026565;28;92174;-53
2022/09/09 01:15:59;;;;;;;0.43;0.43;;;;;;;;;;5019766;28;94206;-53
2022/09/09 01:18:30;;;;;;;2.23;0.70;;;;;;;;;;5019745;28;94152;-53
2022/09/09 01:21:02;;;;;;;0.90;0.80;;;;;;;;;;5019853;28;93589;-53
2022/09/09 01:23:48;;;;;;;0.63;0.60;;;;;;;;;;5027385;28;92047;-52
2022/09/09 01:26:19;;;;;;;1.70;0.70;;;;;;;;;;5001031;28;92233;-53
2022/09/09 01:28:48;;;;;;;2.53;0.60;;;;;;;;;;5031636;28;93121;-53
2022/09/09 01:31:17;;;;;;;1.07;0.60;;;;;;;;;;5020548;28;93823;-52
2022/09/09 01:33:46;;;;;;;0.40;0.30;;;;;;;;;;5020760;28;92058;-52
2022/09/09 01:36:15;;;;;;;0.50;0.50;;;;;;;;;;5021831;28;91331;-53
2022/09/09 01:38:43;;;;;;;1.17;0.80;;;;;;;;;;5020681;28;93001;-52
2022/09/09 01:41:11;;;;;;;1.07;0.83;;;;;;;;;;5020648;28;93555;-53
2022/09/09 01:43:41;;;;;;;0.73;0.57;;;;;;;;;;5020715;28;93121;-53
2022/09/09 01:46:09;;;;;;;0.87;0.67;;;;;;;;;;5023139;28;92380;-53
2022/09/09 01:48:37;;;;;;;1.47;0.70;;;;;;;;;;5019696;28;94407;-53
2022/09/09 01:51:06;;;;;;;0.80;0.67;;;;;;;;;;5030489;27;93782;-53
2022/09/09 01:53:34;;;;;;;1.90;0.80;;;;;;;;;;5024315;28;93363;-53
2022/09/09 01:56:04;;;;;;;1.83;1.40;;;;;;;;;;5021682;28;93683;-53
2022/09/09 01:58:39;;;;;;;2.80;1.27;;;;;;;;;;5020878;28;94239;-53
2022/09/09 02:01:10;;;;;;;1.80;1.23;;;;;;;;;;5021456;28;93812;-53
2022/09/09 02:03:38;;;;;;;4.37;1.50;;;;;;;;;;5020522;28;92107;-53
2022/09/09 02:06:09;;;;;;;2.40;1.80;;;;;;;;;;5028271;28;93622;-52
2022/09/09 02:08:39;;;;;;;2.63;2.10;;;;;;;;;;5026510;28;95227;-53
2022/09/09 02:11:08;;;;;;;6.10;2.13;;;;;;;;;;5019659;28;94614;-53
2022/09/09 02:13:36;;;;;;;3.17;1.87;;;;;;;;;;5036560;28;92848;-53
2022/09/09 02:16:06;;;;;;;3.63;2.07;;;;;;;;;;5040546;28;92124;-53
2022/09/09 02:18:36;;;;;;;2.70;1.50;;;;;;;;;;5039439;28;94143;-53
2022/09/09 02:21:05;;;;;;;4.17;1.80;;;;;;;;;;5038763;28;94040;-53
2022/09/09 02:23:33;;;;;;;5.67;2.10;;;;;;;;;;5038258;28;92509;-53
2022/09/09 02:26:01;;;;;;;5.27;2.33;;;;;;;;;;5038455;27;91334;-52
2022/09/09 02:28:30;;;;;;;4.07;2.63;;;;;;;;;;5036707;28;93998;-53
2022/09/09 02:30:58;;;;;;;4.83;3.50;;;;;;;;;;5038532;28;93698;-53
2022/09/09 02:33:28;;;;;;;6.27;3.60;;;;;;;;;;5039667;28;92956;-53
2022/09/09 02:36:01;;;;;;;4.20;2.83;;;;;;;;;;5040346;28;92085;-53
2022/09/09 02:38:30;;;;;;;6.43;3.57;;;;;;;;;;5040529;28;92986;-53
2022/09/09 02:40:58;;;;;;;5.03;3.17;;;;;;;;;;5040198;28;92833;-53
2022/09/09 02:43:26;;;;;;;5.73;3.43;;;;;;;;;;5040584;28;92117;-52
2022/09/09 02:45:56;;;;;;;4.83;2.63;;;;;;;;;;5039886;28;92687;-52
2022/09/09 02:48:26;;;;;;;6.33;3.43;;;;;;;;;;5039627;28;93832;-53
2022/09/09 02:50:56;;;;;;;5.87;4.17;;;;;;;;;;5036439;28;92618;-53
2022/09/09 02:53:28;;;;;;;5.87;3.43;;;;;;;;;;5035762;28;93662;-53
2022/09/09 02:55:56;;;;;;;5.77;4.07;;;;;;;;;;5035969;28;94112;-54
2022/09/09 02:58:24;;;;;;;6.63;3.20;;;;;;;;;;5035935;28;95055;-52
2022/09/09 03:00:53;;;;;;;4.87;2.87;;;;;;;;;;5035725;28;94840;-53
2022/09/09 03:03:21;;;;;;;6.50;3.70;;;;;;;;;;5035834;28;93797;-53
2022/09/09 03:05:50;;;;;;;4.13;2.80;;;;;;;;;;5040562;28;92108;-52
2022/09/09 03:08:18;;;;;;;3.87;2.77;;;;;;;;;;5039901;28;93770;-53
2022/09/09 03:10:48;;;;;;;4.20;2.80;;;;;;;;;;5039444;28;93899;-51
2022/09/09 03:13:19;;;;;;;4.40;2.20;;;;;;;;;;5054276;27;92087;-53
2022/09/09 03:15:48;;;;;;;3.87;2.57;;;;;;;;;;5040959;27;91268;-53
2022/09/09 03:18:16;;;;;;;6.40;2.97;;;;;;;;;;5055400;27;94037;-53
2022/09/09 03:20:46;;;;;;;4.10;3.07;;;;;;;;;;5040817;27;92384;-52
2022/09/09 03:23:14;;;;;;;3.77;2.37;;;;;;;;;;5040286;27;93004;-53
2022/09/09 03:25:49;;;;;;;2.33;2.00;;;;;;;;;;5040420;27;92263;-53
2022/09/09 03:28:17;;;;;;;7.17;2.73;;;;;;;;;;5046946;27;93913;-53
2022/09/09 03:30:45;;;;;;;5.17;2.83;;;;;;;;;;5046607;27;92820;-52
2022/09/09 03:33:14;;;;;;;3.10;2.00;;;;;;;;;;5040179;27;91846;-53
2022/09/09 03:35:48;;;;;;;3.47;1.90;;;;;;;;;;5040096;27;92087;-52
2022/09/09 03:38:16;;;;;;;3.13;1.70;;;;;;;;;;5039783;27;94511;-53
2022/09/09 03:40:51;;;;;;;3.47;2.53;;;;;;;;;;5039740;28;92775;-52
2022/09/09 03:43:30;;;;;;;3.57;1.87;;;;;;;;;;5083237;27;83181;-51
2022/09/09 03:45:58;;;;;;;3.97;2.10;;;;;;;;;;5064344;27;81732;-52
2022/09/09 03:48:27;;;;;;;4.13;1.90;;;;;;;;;;5043284;27;81834;-52
2022/09/09 03:50:57;;;;;;;3.23;1.93;;;;;;;;;;5046510;27;82711;-52
2022/09/09 03:53:26;;;;;;;3.93;2.10;;;;;;;;;;5043812;27;81885;-52
2022/09/09 03:55:55;;;;;;;2.20;1.30;;;;;;;;;;5052803;27;81694;-52
2022/09/09 03:58:26;;;;;;;2.23;1.60;;;;;;;;;;5045468;27;81852;-52
2022/09/09 04:00:56;;;;;;;1.80;1.47;;;;;;;;;;5062596;27;82253;-52
2022/09/09 04:03:25;;;;;;;4.00;1.40;;;;;;;;;;5050508;27;83289;-52
2022/09/09 04:05:55;;;;;;;1.93;1.43;;;;;;;;;;5052085;27;81593;-51
2022/09/09 04:08:25;;;;;;;4.83;1.83;;;;;;;;;;5062234;27;81470;-51
2022/09/09 04:10:53;;;;;;;4.93;1.40;;;;;;;;;;5057370;27;83959;-52
2022/09/09 04:13:22;;;;;;;3.03;2.03;;;;;;;;;;5051279;27;83087;-51
2022/09/09 04:15:52;;;;;;;2.23;1.60;;;;;;;;;;5057343;27;81862;-52
2022/09/09 04:18:21;;;;;;;2.70;1.33;;;;;;;;;;5054549;27;81558;-51
2022/09/09 04:20:50;;;;;;;4.27;1.70;;;;;;;;;;5050013;27;83778;-51
2022/09/09 04:23:18;;;;;;;3.03;1.33;;;;;;;;;;5050107;27;82508;-52
2022/09/09 04:25:47;;;;;;;2.47;1.30;;;;;;;;;;5051192;27;81588;-51
2022/09/09 04:28:15;;;;;;;1.67;1.07;;;;;;;;;;5061114;27;81728;-51
2022/09/09 04:30:44;;;;;;;2.27;1.27;;;;;;;;;;5062484;27;82583;-51
2022/09/09 04:33:12;;;;;;;2.30;1.37;;;;;;;;;;5060099;27;83026;-51
2022/09/09 04:35:45;;;;;;;1.37;1.00;;;;;;;;;;5061505;27;81828;-52
2022/09/09 04:38:13;;;;;;;2.37;1.37;;;;;;;;;;5066779;27;81385;-52
2022/09/09 04:40:43;;;;;;;1.27;1.07;;;;;;;;;;5047397;27;82527;-51
2022/09/09 04:43:11;;;;;;;0.53;0.53;;;;;;;;;;5060980;27;82197;-51
2022/09/09 04:45:41;;;;;;;2.20;0.90;;;;;;;;;;5059060;27;81658;-51
2022/09/09 04:48:10;;;;;;;1.33;0.67;;;;;;;;;;5060060;27;81675;-52
2022/09/09 04:50:38;;;;;;;3.53;1.00;;;;;;;;;;5046988;27;82769;-52
2022/09/09 04:53:08;;;;;;;0.97;0.70;;;;;;;;;;5052152;27;82932;-52
2022/09/09 04:55:36;;;;;;;2.57;1.20;;;;;;;;;;5036476;27;82607;-52
2022/09/09 04:58:05;;;;;;;1.53;0.50;;;;;;;;;;5050888;27;81448;-51
2022/09/09 05:00:35;;;;;;;0.90;0.70;;;;;;;;;;5034198;27;83676;-51
2022/09/09 05:03:04;;;;;;;1.27;0.50;;;;;;;;;;5058695;27;82459;-52
2022/09/09 05:05:34;;;;;;;1.90;0.60;;;;;;;;;;5029983;28;82026;-51
2022/09/09 05:08:03;;;;;;;0.73;0.50;;;;;;;;;;5047467;28;81593;-51
2022/09/09 05:10:32;;;;;;;1.37;0.73;;;;;;;;;;5043432;27;82613;-52
2022/09/09 05:13:01;;;;;;;2.17;0.57;;;;;;;;;;5046636;28;83373;-52
2022/09/09 05:15:29;;;;;;;1.03;0.40;;;;;;;;;;5045719;27;82108;-52
2022/09/09 05:17:59;;;;;;;0.53;0.53;;;;;;;;;;5059788;27;81703;-52
2022/09/09 05:20:27;;;;;;;0.63;0.63;;;;;;;;;;5055087;27;81690;-52
2022/09/09 05:22:56;;;;;;;0.97;0.60;;;;;;;;;;5047417;27;81656;-51
2022/09/09 05:25:25;;;;;;;1.27;0.40;;;;;;;;;;5036904;28;81278;-51
2022/09/09 05:27:55;;;;;;;0.73;0.40;;;;;;;;;;5054980;27;83587;-52
2022/09/09 05:30:24;;;;;;;2.30;0.60;;;;;;;;;;5047085;28;82575;-51
2022/09/09 05:32:52;;;;;;;0.40;0.40;;;;;;;;;;5047081;27;82155;-51
2022/09/09 05:35:21;;;;;;;1.30;0.57;;;;;;;;;;5035912;28;84015;-51
2022/09/09 05:37:49;;;;;;;0.60;0.50;;;;;;;;;;5045329;27;82490;-52
2022/09/09 05:40:18;;;;;;;1.17;0.50;;;;;;;;;;5037646;28;82842;-51
2022/09/09 05:42:46;;;;;;;0.40;0.40;;;;;;;;;;5047021;27;83555;-52
2022/09/09 05:45:16;;;;;;;2.00;0.50;;;;;;;;;;5045570;28;81609;-51
2022/09/09 05:47:44;;;;;;;0.67;0.40;;;;;;;;;;5046431;27;81916;-51
2022/09/09 05:50:13;;;;;;;0.57;0.43;;;;;;;;;;5050916;27;81724;-52
2022/09/09 05:52:41;;;;;;;1.10;0.60;;;;;;;;;;5050592;27;83154;-51
2022/09/09 05:55:10;;;;;;;0.93;0.73;;;;;;;;;;5047139;27;81596;-50
2022/09/09 05:57:39;;;;;;;1.60;0.63;;;;;;;;;;5047749;27;81610;-51
2022/09/09 06:00:07;;;;;;;0.80;0.50;;;;;;;;;;5054496;27;83653;-50
2022/09/09 06:02:38;;;;;;;2.53;0.60;;;;;;;;;;5048701;27;82061;-51
2022/09/09 06:05:08;;;;;;;0.60;0.60;;;;;;;;;;5042541;27;81806;-51
2022/09/09 06:07:37;;;;;;;1.87;0.80;;;;;;;;;;5045591;28;81467;-51
2022/09/09 06:10:06;;;;;;;2.30;0.43;;;;;;;;;;5046108;27;83604;-51
2022/09/09 06:12:34;;;;;;;0.70;0.70;;;;;;;;;;5046161;27;81659;-52
2022/09/09 06:15:03;;;;;;;2.60;1.03;;;;;;;;;;5054361;27;81672;-52
2022/09/09 06:17:31;;;;;;;2.40;0.77;;;;;;;;;;5049579;27;81729;-52
2022/09/09 06:20:01;;;;;;;0.90;0.40;;;;;;;;;;5044268;27;83730;-52
2022/09/09 06:22:29;;;;;;;0.50;0.50;;;;;;;;;;5034208;27;83111;-52
2022/09/09 06:24:58;;;;;;;1.80;1.23;;;;;;;;;;5062446;27;82846;-52
2022/09/09 06:27:26;;;;;;;1.20;0.63;;;;;;;;;;5049791;27;81717;-52
2022/09/09 06:29:54;;;;;;;1.47;0.40;;;;;;;;;;5044641;27;83656;-52
2022/09/09 06:32:22;;;;;;;0.67;0.30;;;;;;;;;;5045297;27;83139;-53
2022/09/09 06:34:51;;;;;;;0.87;0.47;;;;;;;;;;5054604;27;81831;-52
2022/09/09 06:37:20;;;;;;;0.30;0.30;;;;;;;;;;5048170;27;81668;-53
2022/09/09 06:39:49;;;;;;;1.67;0.60;;;;;;;;;;5037144;27;82548;-53
2022/09/09 06:42:17;;;;;;;0.60;0.40;;;;;;;;;;5045532;27;83554;-52
2022/09/09 06:44:45;;;;;;;1.13;0.80;;;;;;;;;;5047965;27;81840;-52
2022/09/09 06:47:14;;;;;;;0.93;0.60;;;;;;;;;;5042517;27;82026;-52
2022/09/09 06:49:43;;;;;;;0.37;0.20;;;;;;;;;;5038350;27;83657;-52
2022/09/09 06:52:17;;;;;;;1.30;0.50;;;;;;;;;;5059609;27;82251;-52
2022/09/09 06:54:47;;;;;;;2.83;0.60;;;;;;;;;;5044755;28;82239;-52
2022/09/09 06:57:16;;;;;;;2.73;0.60;;;;;;;;;;5051449;27;81681;-52
2022/09/09 07:00:04;;;;;;;0.60;0.53;;;;;;;;;;5054864;27;83385;-52
2022/09/09 07:02:38;;;;;;;0.60;0.53;;;;;;;;;;5053310;27;83019;-53
2022/09/09 07:05:07;;;;;;;2.37;0.77;;;;;;;;;;5055079;27;81877;-52
2022/09/09 07:07:36;;;;;;;0.83;0.40;;;;;;;;;;5043510;27;81651;-52
2022/09/09 07:10:07;;;;;;;0.77;0.37;;;;;;;;;;5058226;27;82644;-53
2022/09/09 07:12:35;;;;;;;1.47;0.50;;;;;;;;;;5050295;27;82513;-52
2022/09/09 07:15:04;;;;;;;0.83;0.50;;;;;;;;;;5040854;27;82173;-53
2022/09/09 07:17:33;;;;;;;3.00;0.50;;;;;;;;;;5039672;27;81743;-53
2022/09/09 07:20:02;;;;;;;0.40;0.40;;;;;;;;;;5044522;27;84420;-52
2022/09/09 07:22:30;;;;;;;0.77;0.50;;;;;;;;;;5044760;27;83259;-53
2022/09/09 07:24:58;;;;;;;2.63;1.00;;;;;;;;;;5052932;27;81655;-53
2022/09/09 07:27:28;;;;;;;1.20;0.40;;;;;;;;;;5054485;27;82108;-53
2022/09/09 07:29:57;;;;;;;1.80;0.63;;;;;;;;;;5051276;27;83632;-52
2022/09/09 07:32:25;;;;;;;1.13;0.40;;;;;;;;;;5064699;27;81795;-52
2022/09/09 07:34:53;;;;;;;0.90;0.40;;;;;;;;;;5061587;27;81606;-52
2022/09/09 07:37:22;;;;;;;1.90;0.40;;;;;;;;;;5063714;27;81704;-52
2022/09/09 07:39:50;;;;;;;0.53;0.20;;;;;;;;;;5063367;27;83573;-53
2022/09/09 07:42:19;;;;;;;1.00;0.57;;;;;;;;;;5039613;27;83089;-53
2022/09/09 07:44:49;;;;;;;0.83;0.47;;;;;;;;;;5062931;27;83110;-52
2022/09/09 07:47:17;;;;;;;0.10;0.10;;;;;;;;;;5063481;27;81655;-52
2022/09/09 07:49:46;;;;;;;3.30;0.40;;;;;;;;;;5063042;27;82596;-53
2022/09/09 07:52:14;;;;;;;0.40;0.33;;;;;;;;;;5064241;27;83905;-53
2022/09/09 07:54:47;;;;;;;3.23;0.60;;;;;;;;;;5055427;27;82884;-53
2022/09/09 07:57:16;;;;;;;1.50;0.60;;;;;;;;;;5060940;27;81948;-53
2022/09/09 07:59:46;;;;;;;0.30;0.30;;;;;;;;;;5053692;27;83856;-51
2022/09/09 08:02:16;;;;;;;0.77;0.50;;;;;;;;;;5051743;27;82933;-51
2022/09/09 08:04:44;;;;;;;0.67;0.47;;;;;;;;;;5044526;27;84672;-51
2022/09/09 08:07:13;;;;;;;1.00;0.40;;;;;;;;;;5054610;27;83108;-51
2022/09/09 08:09:41;;;;;;;0.70;0.70;;;;;;;;;;5060429;27;83968;-51
2022/09/09 08:12:12;;;;;;;1.33;0.50;;;;;;;;;;5054220;27;82800;-51
2022/09/09 08:14:41;;;;;;;3.23;0.40;;;;;;;;;;5045482;27;83962;-51
2022/09/09 08:17:09;;;;;;;0.70;0.37;;;;;;;;;;5062155;27;81969;-51
2022/09/09 08:19:39;;;;;;;0.43;0.43;;;;;;;;;;5057846;27;83655;-51
2022/09/09 08:22:08;;;;;;;0.70;0.40;;;;;;;;;;5048992;27;82957;-51
2022/09/09 08:24:36;;;;;;;0.60;0.50;;;;;;;;;;5063513;27;84018;-51
2022/09/09 08:27:05;;;;;;;0.80;0.47;;;;;;;;;;5047580;27;83142;-51
2022/09/09 08:29:33;;;;;;;1.27;0.47;;;;;;;;;;5047051;27;83732;-52
2022/09/09 08:32:01;;;;;;;1.50;0.50;;;;;;;;;;5055045;27;83682;-50
2022/09/09 08:34:31;;;;;;;1.20;0.40;;;;;;;;;;5067529;27;83957;-51
2022/09/09 08:37:00;;;;;;;0.77;0.50;;;;;;;;;;5054783;27;82028;-51
2022/09/09 08:39:29;;;;;;;0.50;0.50;;;;;;;;;;5046952;28;83624;-51
2022/09/09 08:42:09;;;;;;;1.07;0.40;;;;;;;;;;5046941;28;84203;-52
2022/09/09 08:44:41;;;;;;;2.10;0.60;;;;;;;;;;5046853;28;83697;-51
2022/09/09 08:47:17;;;;;;;0.97;0.60;;;;;;;;;;5046717;28;82036;-52
2022/09/09 08:49:49;;;;;;;3.97;1.03;;;;;;;;;;5064058;27;83623;-52
2022/09/09 08:52:20;;;;;;;0.83;0.63;;;;;;;;;;5066867;27;84998;-51
2022/09/09 08:54:48;;;;;;;2.87;1.10;;;;;;;;;;5060120;27;83621;-51
2022/09/09 08:57:21;;;;;;;0.70;0.40;;;;;;;;;;5047325;28;81989;-52
2022/09/09 08:59:50;;;;;;;0.40;0.40;;;;;;;;;;5046325;28;83535;-52
2022/09/09 09:02:18;;;;;;;0.37;0.37;;;;;;;;;;5046494;28;81914;-52
2022/09/09 09:04:51;;;;;;;0.73;0.50;;;;;;;;;;5046548;28;83428;-53
2022/09/09 09:07:23;;;;;;;3.60;0.30;;;;;;;;;;5046774;28;81864;-53
2022/09/09 09:09:53;;;;;;;2.80;0.53;;;;;;;;;;5046751;28;82581;-53
2022/09/09 09:12:22;;;;;;;1.50;0.93;;;;;;;;;;5046376;28;82973;-53
2022/09/09 09:14:50;;;;;;;0.27;0.27;;;;;;;;;;5045858;28;83688;-54
2022/09/09 09:17:19;;;;;;;0.50;0.50;;;;;;;;;;5046482;28;82828;-51
2022/09/09 09:19:49;;;;;;;0.57;0.33;;;;;;;;;;5046373;28;83479;-53
2022/09/09 09:22:18;;;;;;;2.47;0.53;;;;;;;;;;5046381;28;83839;-54
2022/09/09 09:24:50;;;;;;;0.40;0.40;;;;;;;;;;5050669;27;82536;-53
2022/09/09 09:27:20;;;;;;;0.60;0.30;;;;;;;;;;5066732;27;82023;-53
2022/09/09 09:29:49;;;;;;;0.83;0.37;;;;;;;;;;5066217;27;83922;-53
2022/09/09 09:32:37;;;;;;;0.47;0.37;;;;;;;;;;5065879;27;82704;-53
2022/09/09 09:35:08;;;;;;;0.30;0.30;;;;;;;;;;5066651;27;83740;-53
2022/09/09 09:37:37;;;;;;;0.90;0.40;;;;;;;;;;5065065;27;81790;-53
2022/09/09 09:40:26;;;;;;;0.67;0.67;;;;;;;;;;5065815;27;81987;-53
2022/09/09 09:42:55;;;;;;;3.57;0.93;;;;;;;;;;5064635;27;84932;-53
2022/09/09 09:45:28;;;;;;;0.90;0.60;;;;;;;;;;5065517;27;84554;-53
2022/09/09 09:48:01;;;;;;;0.50;0.40;;;;;;;;;;5066213;27;81961;-53
2022/09/09 09:50:34;;;;;;;1.43;0.77;;;;;;;;;;5066361;27;83830;-53
2022/09/09 09:53:04;;;;;;;3.10;0.60;;;;;;;;;;5066049;27;84516;-53
2022/09/09 09:55:34;;;;;;;0.50;0.50;;;;;;;;;;5066290;27;82360;-53
2022/09/09 09:58:04;;;;;;;1.73;0.83;;;;;;;;;;5065571;27;81946;-53
2022/09/09 10:00:37;;;;;;;3.70;1.13;;;;;;;;;;5066458;27;83341;-53
2022/09/09 10:03:14;;;;;;;1.17;0.93;;;;;;;;;;5065946;27;82904;-52
2022/09/09 10:05:46;;;;;;;1.20;0.80;;;;;;;;;;5065590;27;82629;-53
2022/09/09 10:08:16;;;;;;;2.07;1.07;;;;;;;;;;5065113;27;82919;-53
2022/09/09 10:10:50;;;;;;;1.70;0.80;;;;;;;;;;5065588;27;83795;-53
2022/09/09 10:13:21;;;;;;;0.70;0.70;;;;;;;;;;5046171;27;84241;-53
2022/09/09 10:15:51;;;;;;;1.37;0.90;;;;;;;;;;5045339;28;83977;-53
2022/09/09 10:18:36;;;;;;;0.67;0.67;;;;;;;;;;5045571;27;82021;-53
2022/09/09 10:21:05;;;;;;;1.00;0.90;;;;;;;;;;5045236;28;83749;-53
2022/09/09 10:23:40;;;;;;;8.63;1.17;;;;;;;;;;5045258;28;83900;-53
2022/09/09 10:26:21;;;;;;;1.63;1.10;;;;;;;;;;5061263;27;84173;-53
2022/09/09 10:28:59;;;;;;;1.33;0.90;;;;;;;;;;5064968;27;82014;-53
2022/09/09 10:31:30;;;;;;;0.87;0.80;;;;;;;;;;5064881;27;84051;-53
2022/09/09 10:33:59;;;;;;;1.40;1.00;;;;;;;;;;5064356;27;83684;-53
2022/09/09 10:36:28;;;;;;;2.10;1.10;;;;;;;;;;5065330;27;83818;-53
2022/09/09 10:38:59;;;;;;;1.87;1.10;;;;;;;;;;5065626;27;82025;-53
2022/09/09 10:41:34;;;;;;;3.10;1.23;;;;;;;;;;5064408;27;82649;-53
2022/09/09 10:44:06;;;;;;;1.87;1.30;;;;;;;;;;5064367;27;84182;-53
2022/09/09 10:46:36;;;;;;;1.93;1.10;;;;;;;;;;5065161;27;82786;-53
2022/09/09 10:49:08;;;;;;;1.07;0.80;;;;;;;;;;5065462;27;82353;-53
2022/09/09 10:51:40;;;;;;;1.90;1.20;;;;;;;;;;5064391;27;82486;-53
2022/09/09 10:54:13;;;;;;;2.93;1.43;;;;;;;;;;5064715;27;84032;-53
2022/09/09 10:56:43;;;;;;;2.77;1.30;;;;;;;;;;5065271;27;83775;-53
2022/09/09 10:59:12;;;;;;;3.07;1.43;;;;;;;;;;5063435;27;82941;-53
2022/09/09 11:01:42;;;;;;;1.20;0.90;;;;;;;;;;5065130;27;83040;-53
2022/09/09 11:04:12;;;;;;;2.67;1.63;;;;;;;;;;5064997;27;84346;-53
2022/09/09 11:06:42;;;;;;;2.23;1.57;;;;;;;;;;5064460;27;82923;-53
2022/09/09 11:09:11;;;;;;;2.57;1.70;;;;;;;;;;5063654;27;81914;-53
2022/09/09 11:11:40;;;;;;;3.00;1.63;;;;;;;;;;5058850;27;82430;-53
2022/09/09 11:14:12;;;;;;;3.07;1.80;;;;;;;;;;5043393;28;83197;-53
2022/09/09 11:16:42;;;;;;;2.53;1.77;;;;;;;;;;5044584;28;83770;-53
2022/09/09 11:19:13;;;;;;;2.93;2.23;;;;;;;;;;5043877;28;82111;-53
2022/09/09 11:21:42;;;;;;;3.90;1.80;;;;;;;;;;5044378;28;83868;-53
2022/09/09 11:24:11;;;;;;;2.97;1.80;;;;;;;;;;5043961;28;85086;-53
2022/09/09 11:26:40;;;;;;;4.57;2.07;;;;;;;;;;5064417;27;83676;-53
2022/09/09 11:29:15;;;;;;;3.10;1.93;;;;;;;;;;5064625;27;81925;-53
2022/09/09 11:31:46;;;;;;;3.13;1.80;;;;;;;;;;5056163;27;83937;-52
2022/09/09 11:34:35;;;;;;;3.63;2.00;;;;;;;;;;5054547;27;84060;-53
2022/09/09 11:37:19;;;;;;;2.27;1.50;;;;;;;;;;5044181;28;83300;-51
2022/09/09 11:39:56;;;;;;;3.10;1.60;;;;;;;;;;5044173;28;81813;-49
2022/09/09 11:42:25;;;;;;;3.53;1.70;;;;;;;;;;5042989;27;83750;-49
2022/09/09 11:44:56;;;;;;;4.03;2.07;;;;;;;;;;5053930;27;83910;-49
2022/09/09 11:47:29;;;;;;;4.63;1.90;;;;;;;;;;5044991;27;84074;-49
2022/09/09 11:49:57;;;;;;;9.67;2.63;;;;;;;;;;5045369;27;83007;-49
2022/09/09 11:52:26;;;;;;;3.50;2.30;;;;;;;;;;5045470;27;83785;-49
2022/09/09 11:54:56;;;;;;;3.60;2.30;;;;;;;;;;5039891;28;84215;-49
2022/09/09 11:57:28;;;;;;;4.37;2.30;;;;;;;;;;5042687;27;82407;-50
2022/09/09 11:59:58;;;;;;;5.33;3.27;;;;;;;;;;5046997;27;81879;-49
2022/09/09 12:02:27;;;;;;;4.17;1.83;;;;;;;;;;5057380;27;84395;-49
2022/09/09 12:04:57;;;;;;;3.50;2.10;;;;;;;;;;5063946;27;84123;-49
2022/09/09 12:07:29;;;;;;;4.80;2.60;;;;;;;;;;5048419;27;83823;-49
2022/09/09 12:09:57;;;;;;;1.70;1.60;;;;;;;;;;5047092;27;81980;-49
2022/09/09 12:12:35;;;;;;;5.47;2.50;;;;;;;;;;5036154;27;83703;-49
2022/09/09 12:15:34;;;;;;;2.83;2.37;;;;;;;;;;5051245;27;83961;-49
2022/09/09 12:18:04;;;;;;;6.90;2.60;;;;;;;;;;5056565;27;83698;-49
2022/09/09 12:20:33;;;;;;;3.10;2.50;;;;;;;;;;5047430;27;82116;-49
2022/09/09 12:23:05;;;;;;;4.17;2.40;;;;;;;;;;5027498;28;83703;-49
2022/09/09 12:25:36;;;;;;;2.53;2.03;;;;;;;;;;5046911;27;83743;-49
2022/09/09 12:28:06;;;;;;;4.97;2.20;;;;;;;;;;5045119;27;82541;-49
2022/09/09 12:30:36;;;;;;;1.60;1.50;;;;;;;;;;5029279;27;81761;-49
2022/09/09 12:33:10;;;;;;;5.00;2.00;;;;;;;;;;5027576;28;84236;-49
2022/09/09 12:35:39;;;;;;;8.77;2.53;;;;;;;;;;5034267;28;83863;-49
2022/09/09 12:38:11;;;;;;;2.67;2.20;;;;;;;;;;5033624;28;83707;-49
2022/09/09 12:40:39;;;;;;;3.10;1.97;;;;;;;;;;5044761;27;83235;-49
2022/09/09 12:43:19;;;;;;;4.00;2.07;;;;;;;;;;5026108;28;83945;-49
2022/09/09 12:45:49;;;;;;;6.23;3.03;;;;;;;;;;5026800;28;83866;-49
2022/09/09 12:48:19;;;;;;;3.07;2.50;;;;;;;;;;5027657;27;82737;-49
2022/09/09 12:50:49;;;;;;;3.97;1.77;;;;;;;;;;5044613;27;81845;-49
2022/09/09 12:53:18;;;;;;;4.10;2.60;;;;;;;;;;5046798;28;83939;-49
2022/09/09 12:55:51;;;;;;;2.17;1.97;;;;;;;;;;5046873;28;84211;-49
2022/09/09 12:58:20;;;;;;;3.53;2.60;;;;;;;;;;5046757;27;83468;-49
2022/09/09 13:00:52;;;;;;;4.70;2.53;;;;;;;;;;5046807;28;82046;-49
2022/09/09 13:03:22;;;;;;;3.47;2.10;;;;;;;;;;5046733;28;83948;-49
2022/09/09 13:05:50;;;;;;;3.97;2.97;;;;;;;;;;5046131;28;85030;-49
2022/09/09 13:08:20;;;;;;;3.10;2.67;;;;;;;;;;5046159;28;83615;-49
2022/09/09 13:10:49;;;;;;;2.80;2.33;;;;;;;;;;5046902;27;81740;-48
2022/09/09 13:13:22;;;;;;;6.17;2.90;;;;;;;;;;5026341;28;81965;-49
2022/09/09 13:15:51;;;;;;;5.17;3.50;;;;;;;;;;5025841;28;82675;-49
2022/09/09 13:18:21;;;;;;;4.20;2.63;;;;;;;;;;5045039;28;82521;-49
2022/09/09 13:20:51;;;;;;;6.50;3.30;;;;;;;;;;5046491;27;81669;-49
2022/09/09 13:23:20;;;;;;;4.70;2.80;;;;;;;;;;5046795;27;82652;-48
2022/09/09 13:25:54;;;;;;;5.27;3.50;;;;;;;;;;5041361;27;83918;-49
2022/09/09 13:28:24;;;;;;;2.87;2.30;;;;;;;;;;5045367;27;83583;-49
2022/09/09 13:31:00;;;;;;;3.07;2.27;;;;;;;;;;5045193;28;82964;-48
2022/09/09 13:33:33;;;;;;;3.20;2.37;;;;;;;;;;5046345;28;84034;-49
2022/09/09 13:36:03;;;;;;;3.30;2.07;;;;;;;;;;5046377;28;82958;-49
2022/09/09 13:38:32;;;;;;;4.60;2.30;;;;;;;;;;5046152;27;83720;-48
2022/09/09 13:41:03;;;;;;;2.87;1.73;;;;;;;;;;5045839;27;81888;-48
2022/09/09 13:43:32;;;;;;;2.57;1.83;;;;;;;;;;5045796;27;83877;-49
2022/09/09 13:46:01;;;;;;;7.87;3.00;;;;;;;;;;5045808;28;84202;-48
2022/09/09 13:48:31;;;;;;;8.80;4.27;;;;;;;;;;5046216;28;81599;-48
2022/09/09 13:51:00;;;;;;;12.67;5.97;;;;;;;;;;5045992;28;81961;-48
2022/09/09 13:53:30;;;;;;;11.00;4.90;;;;;;;;;;5045340;28;83042;-48
2022/09/09 13:55:58;;;;;;;12.30;5.53;;;;;;;;;;5045193;28;85233;-49
2022/09/09 13:58:26;;;;;;;12.07;4.57;;;;;;;;;;5054065;27;84707;-49
2022/09/09 14:00:55;;;;;;;11.03;4.73;;;;;;;;;;5051849;27;81933;-49
2022/09/09 14:03:23;;;;;;;7.30;3.73;;;;;;;;;;5058660;27;82475;-49
2022/09/09 14:05:51;;;;;;;8.53;2.93;;;;;;;;;;5045183;28;83963;-48
2022/09/09 14:08:24;;;;;;;9.33;3.80;;;;;;;;;;5044629;27;82035;-49
2022/09/09 14:10:57;;;;;;;8.43;2.97;;;;;;;;;;5045721;27;81930;-49
2022/09/09 14:13:25;;;;;;;5.87;3.47;;;;;;;;;;5025803;28;83700;-49
2022/09/09 14:15:53;;;;;;;5.23;2.90;;;;;;;;;;5025222;28;82799;-49
2022/09/09 14:18:23;;;;;;;6.07;3.40;;;;;;;;;;5049091;27;83788;-48
2022/09/09 14:20:51;;;;;;;4.37;3.00;;;;;;;;;;5050177;27;83101;-49
2022/09/09 14:23:21;;;;;;;5.17;3.20;;;;;;;;;;5046523;27;83663;-48
2022/09/09 14:25:49;;;;;;;4.10;2.60;;;;;;;;;;5044515;28;83940;-48
2022/09/09 14:28:19;;;;;;;8.33;3.00;;;;;;;;;;5044894;28;81874;-49
2022/09/09 14:31:10;;;;;;;4.90;2.77;;;;;;;;;;5045518;28;81935;-49
2022/09/09 14:33:38;;;;;;;7.83;2.47;;;;;;;;;;5062631;27;83844;-49
2022/09/09 14:36:07;;;;;;;4.77;3.00;;;;;;;;;;5051227;27;83748;-48
2022/09/09 14:38:39;;;;;;;4.37;2.80;;;;;;;;;;5056586;27;83893;-49
2022/09/09 14:41:08;;;;;;;3.50;2.47;;;;;;;;;;5044298;27;82112;-48
2022/09/09 14:43:37;;;;;;;5.47;2.60;;;;;;;;;;5048107;27;83721;-48
2022/09/09 14:46:06;;;;;;;7.20;2.63;;;;;;;;;;5044636;27;84993;-49
2022/09/09 14:48:34;;;;;;;3.57;2.60;;;;;;;;;;5045164;27;84908;-48
2022/09/09 14:51:07;;;;;;;3.97;1.93;;;;;;;;;;5044985;28;82298;-49
2022/09/09 14:53:35;;;;;;;3.73;1.90;;;;;;;;;;5052945;27;83896;-50
2022/09/09 14:56:08;;;;;;;2.60;1.90;;;;;;;;;;5054387;27;84167;-50
2022/09/09 14:58:37;;;;;;;5.30;2.33;;;;;;;;;;5059243;27;82383;-50
2022/09/09 15:01:06;;;;;;;3.37;1.60;;;;;;;;;;5064925;27;81888;-51